Terminal Aerodrome Forecast
Issued by NWS

Home | Current Version | Previous Version | Text Only | Print | Product List | Glossary On
Versions: 1 2 3 4 5 6 7 8 9 10 11 12
000
FTUS45 KPIH 061730
TAFSUN
TAF
KSUN 061730Z 0618/0718 15008KT P6SM VCSH SCT050 BKN100
     FM062100 19008KT P6SM VCTS SCT040CB BKN080
     FM070200 30006KT P6SM SCT070 BKN100
     FM070900 32007KT P6SM -SHRA SCT030 OVC050=

USA.gov is the U.S. government's official web portal to all federal, state and local government web resources and services.